Time;durP1;ratioP1;P1;durP2;ratioP2;P2;SDS_P1;SDS_P2;PMS_P1;PMS_P2;Temp;Humidity;BMP_temperature;BMP_pressure;BME280_temperature;BME280_humidity;BME280_pressure;Samples;Min_cycle;Max_cycle;Signal;HPM_P1;HPM_P2
2022/11/13 00:01:14;;;;;;;16.23;13.48;;;;;;;;;;5280968;28;20025;-83
2022/11/13 00:03:46;;;;;;;19.08;14.93;;;;;;;;;;5283006;28;20037;-82
2022/11/13 00:06:17;;;;;;;16.75;13.75;;;;;;;;;;5282871;28;20071;-83
2022/11/13 00:08:52;;;;;;;16.00;13.82;;;;;;;;;;5265201;28;20354;-82
2022/11/13 00:11:23;;;;;;;14.93;12.98;;;;;;;;;;5282163;28;20021;-82
2022/11/13 00:13:54;;;;;;;18.08;13.68;;;;;;;;;;5282958;28;20091;-83
2022/11/13 00:16:25;;;;;;;16.00;12.73;;;;;;;;;;5282679;28;20025;-83
2022/11/13 00:18:56;;;;;;;17.50;11.88;;;;;;;;;;5282683;28;20260;-82
2022/11/13 00:21:28;;;;;;;15.87;13.17;;;;;;;;;;5281976;28;20017;-82
2022/11/13 00:23:59;;;;;;;16.77;14.25;;;;;;;;;;5284724;28;20283;-82
2022/11/13 00:26:30;;;;;;;20.60;15.73;;;;;;;;;;5286115;28;20021;-82
2022/11/13 00:29:02;;;;;;;19.05;14.63;;;;;;;;;;5284643;28;20224;-82
2022/11/13 00:31:33;;;;;;;20.35;14.82;;;;;;;;;;5285350;28;20013;-82
2022/11/13 00:34:04;;;;;;;21.20;16.40;;;;;;;;;;5285800;28;20016;-82
2022/11/13 00:36:35;;;;;;;19.52;15.35;;;;;;;;;;5285788;28;20669;-83
2022/11/13 00:39:07;;;;;;;18.23;15.93;;;;;;;;;;5285651;28;20036;-82
2022/11/13 00:41:39;;;;;;;17.48;14.88;;;;;;;;;;5285563;28;20075;-82
2022/11/13 00:44:10;;;;;;;19.25;14.63;;;;;;;;;;5285203;28;20051;-83
2022/11/13 00:46:41;;;;;;;20.67;14.23;;;;;;;;;;5285281;28;20072;-83
2022/11/13 00:49:12;;;;;;;15.55;13.68;;;;;;;;;;5285546;28;20036;-83
2022/11/13 00:51:43;;;;;;;17.13;13.25;;;;;;;;;;5285152;28;20025;-83
2022/11/13 00:54:14;;;;;;;17.90;13.80;;;;;;;;;;5285435;28;20378;-82
2022/11/13 00:56:46;;;;;;;18.07;14.47;;;;;;;;;;5266984;28;20279;-82
2022/11/13 00:59:17;;;;;;;18.47;14.87;;;;;;;;;;5267166;28;20319;-82
2022/11/13 01:01:48;;;;;;;22.92;15.60;;;;;;;;;;5270059;28;20240;-82
2022/11/13 01:04:19;;;;;;;21.38;17.27;;;;;;;;;;5262781;28;20041;-82
2022/11/13 01:06:50;;;;;;;19.57;16.23;;;;;;;;;;5264169;28;20441;-83
2022/11/13 01:09:22;;;;;;;19.33;16.83;;;;;;;;;;5263868;28;20268;-82
2022/11/13 01:11:53;;;;;;;24.57;18.57;;;;;;;;;;5262964;28;20268;-82
2022/11/13 01:14:24;;;;;;;21.77;17.70;;;;;;;;;;5263710;28;20271;-82
2022/11/13 01:16:55;;;;;;;19.43;15.43;;;;;;;;;;5263921;28;20172;-82
2022/11/13 01:19:26;;;;;;;21.70;18.07;;;;;;;;;;5262667;28;20276;-83
2022/11/13 01:21:58;;;;;;;23.23;18.38;;;;;;;;;;5263667;28;20261;-82
2022/11/13 01:24:30;;;;;;;24.23;19.10;;;;;;;;;;5269020;28;20087;-82
2022/11/13 01:27:01;;;;;;;25.20;18.90;;;;;;;;;;5270531;28;20045;-82
2022/11/13 01:29:32;;;;;;;24.38;18.75;;;;;;;;;;5269235;28;20048;-82
2022/11/13 01:32:04;;;;;;;23.15;18.23;;;;;;;;;;5269289;28;20022;-82
2022/11/13 01:34:35;;;;;;;21.00;17.95;;;;;;;;;;5285885;28;20021;-82
2022/11/13 01:37:06;;;;;;;20.25;16.70;;;;;;;;;;5288486;28;20013;-82
2022/11/13 01:39:37;;;;;;;22.00;17.40;;;;;;;;;;5290552;28;20028;-82
2022/11/13 01:42:09;;;;;;;22.63;17.67;;;;;;;;;;5288886;28;20267;-82
2022/11/13 01:44:53;;;;;;;19.00;15.80;;;;;;;;;;5288185;28;20032;-82
2022/11/13 01:47:25;;;;;;;20.88;16.35;;;;;;;;;;5287099;28;20064;-82
2022/11/13 01:49:59;;;;;;;19.35;15.73;;;;;;;;;;5290146;28;20375;-83
2022/11/13 01:52:32;;;;;;;17.02;14.80;;;;;;;;;;5269567;28;20116;-82
2022/11/13 01:55:07;;;;;;;17.45;15.50;;;;;;;;;;5285890;28;20067;-83
2022/11/13 01:57:39;;;;;;;19.95;15.32;;;;;;;;;;5284578;28;20025;-82
2022/11/13 02:00:10;;;;;;;17.85;15.05;;;;;;;;;;5284469;28;20075;-83
2022/11/13 02:02:41;;;;;;;19.65;15.68;;;;;;;;;;5284596;28;20029;-82
2022/11/13 02:05:13;;;;;;;17.65;14.98;;;;;;;;;;5266068;28;20021;-82
2022/11/13 02:07:44;;;;;;;17.70;13.38;;;;;;;;;;5266097;28;20051;-83
2022/11/13 02:10:15;;;;;;;18.67;15.35;;;;;;;;;;5284423;28;20177;-83
2022/11/13 02:12:48;;;;;;;19.30;15.30;;;;;;;;;;5284248;28;20531;-82
2022/11/13 02:15:22;;;;;;;18.08;15.32;;;;;;;;;;5265192;28;20052;-83
2022/11/13 02:17:55;;;;;;;18.38;15.55;;;;;;;;;;5284323;28;20859;-82
2022/11/13 02:20:31;;;;;;;18.70;15.30;;;;;;;;;;5284150;28;20073;-83
2022/11/13 02:23:18;;;;;;;17.77;15.50;;;;;;;;;;5273144;28;20493;-83
2022/11/13 02:25:51;;;;;;;16.65;14.80;;;;;;;;;;5261020;28;20048;-83
2022/11/13 02:28:22;;;;;;;19.90;16.08;;;;;;;;;;5261276;28;20374;-83
2022/11/13 02:30:53;;;;;;;19.27;14.97;;;;;;;;;;5262830;28;20091;-82
2022/11/13 02:33:26;;;;;;;18.07;14.20;;;;;;;;;;5263079;28;20272;-82
2022/11/13 02:35:58;;;;;;;15.90;13.95;;;;;;;;;;5262911;28;20260;-82
2022/11/13 02:38:29;;;;;;;15.80;14.20;;;;;;;;;;5262661;28;20052;-83
2022/11/13 02:41:01;;;;;;;19.00;14.88;;;;;;;;;;5260959;28;20121;-82
2022/11/13 02:43:32;;;;;;;17.70;14.35;;;;;;;;;;5261351;28;20021;-83
2022/11/13 02:46:03;;;;;;;20.07;14.80;;;;;;;;;;5260472;28;20472;-82
2022/11/13 02:48:34;;;;;;;16.15;13.75;;;;;;;;;;5262256;28;20335;-83
2022/11/13 02:51:05;;;;;;;16.77;13.65;;;;;;;;;;5262188;28;20029;-83
2022/11/13 02:53:37;;;;;;;15.70;13.93;;;;;;;;;;5262551;28;20081;-83
2022/11/13 02:56:08;;;;;;;18.92;14.07;;;;;;;;;;5261330;28;20320;-82
2022/11/13 02:58:39;;;;;;;14.27;12.77;;;;;;;;;;5263578;28;20022;-82
2022/11/13 03:01:10;;;;;;;14.60;12.70;;;;;;;;;;5266464;28;20104;-82
2022/11/13 03:03:41;;;;;;;15.90;12.60;;;;;;;;;;5262317;28;20390;-83
2022/11/13 03:06:13;;;;;;;14.70;12.32;;;;;;;;;;5260945;28;20276;-83
2022/11/13 03:08:44;;;;;;;14.23;12.73;;;;;;;;;;5262286;28;20482;-83
2022/11/13 03:11:15;;;;;;;17.17;12.50;;;;;;;;;;5261937;28;20802;-83
2022/11/13 03:13:46;;;;;;;17.80;12.87;;;;;;;;;;5262321;28;20295;-83
2022/11/13 03:16:17;;;;;;;16.23;12.85;;;;;;;;;;5260501;28;20284;-83
2022/11/13 03:18:49;;;;;;;14.80;13.17;;;;;;;;;;5262516;28;20065;-83
2022/11/13 03:21:20;;;;;;;15.48;12.32;;;;;;;;;;5260008;28;20602;-82
2022/11/13 03:23:52;;;;;;;13.80;11.07;;;;;;;;;;5262236;28;20053;-83
2022/11/13 03:26:23;;;;;;;15.25;12.63;;;;;;;;;;5260612;28;20018;-83
2022/11/13 03:28:54;;;;;;;13.30;11.60;;;;;;;;;;5262113;28;20421;-81
2022/11/13 03:31:26;;;;;;;12.68;11.27;;;;;;;;;;5262539;28;20300;-83
2022/11/13 03:33:57;;;;;;;14.95;12.15;;;;;;;;;;5262717;28;20014;-82
2022/11/13 03:36:28;;;;;;;14.82;11.38;;;;;;;;;;5261119;28;20056;-83
2022/11/13 03:39:00;;;;;;;12.27;10.98;;;;;;;;;;5260834;28;20025;-83
2022/11/13 03:41:31;;;;;;;15.00;11.35;;;;;;;;;;5262184;28;20021;-83
2022/11/13 03:44:02;;;;;;;14.75;11.90;;;;;;;;;;5262455;28;20109;-83
2022/11/13 03:46:33;;;;;;;12.00;10.50;;;;;;;;;;5262040;28;20389;-83
2022/11/13 03:49:04;;;;;;;11.60;10.37;;;;;;;;;;5262074;28;20026;-83
2022/11/13 03:51:36;;;;;;;11.85;9.48;;;;;;;;;;5260891;28;20706;-83
2022/11/13 03:54:07;;;;;;;12.90;9.68;;;;;;;;;;5260926;28;20112;-82
2022/11/13 03:56:38;;;;;;;10.30;9.20;;;;;;;;;;5262631;28;20033;-83
2022/11/13 03:59:09;;;;;;;11.17;9.87;;;;;;;;;;5265552;28;20283;-83
2022/11/13 04:01:40;;;;;;;11.63;9.10;;;;;;;;;;5263936;28;20634;-83
2022/11/13 04:04:12;;;;;;;11.88;8.68;;;;;;;;;;5265354;28;20273;-83
2022/11/13 04:06:43;;;;;;;11.00;9.10;;;;;;;;;;5265630;28;20036;-83
2022/11/13 04:09:14;;;;;;;10.93;8.90;;;;;;;;;;5263943;28;20378;-83
2022/11/13 04:11:45;;;;;;;11.38;9.60;;;;;;;;;;5247665;28;20308;-82
2022/11/13 04:14:17;;;;;;;13.23;10.13;;;;;;;;;;5265444;28;20536;-82
2022/11/13 04:16:48;;;;;;;14.13;9.97;;;;;;;;;;5263954;28;20296;-82
2022/11/13 04:19:19;;;;;;;11.00;9.80;;;;;;;;;;5265348;28;20282;-82
2022/11/13 04:21:50;;;;;;;13.25;9.73;;;;;;;;;;5265012;28;20375;-82
2022/11/13 04:24:21;;;;;;;10.80;9.57;;;;;;;;;;5265409;28;20120;-82
2022/11/13 04:26:53;;;;;;;12.13;9.13;;;;;;;;;;5265414;28;20260;-82
2022/11/13 04:29:24;;;;;;;12.17;9.03;;;;;;;;;;5263759;28;20657;-82
2022/11/13 04:31:55;;;;;;;10.60;8.93;;;;;;;;;;5264927;28;20248;-82
2022/11/13 04:34:26;;;;;;;11.73;9.10;;;;;;;;;;5265508;28;20280;-82
2022/11/13 04:36:57;;;;;;;9.40;8.40;;;;;;;;;;5265083;28;20029;-82
2022/11/13 04:39:28;;;;;;;11.07;9.27;;;;;;;;;;5265308;28;20680;-82
2022/11/13 04:44:49;;;;;;;12.23;9.43;;;;;;;;;;5264265;28;20276;-82
2022/11/13 04:47:21;;;;;;;11.50;9.07;;;;;;;;;;5263977;28;20049;-82
2022/11/13 04:49:52;;;;;;;12.73;8.98;;;;;;;;;;5264532;28;20308;-82
2022/11/13 04:52:23;;;;;;;11.63;9.30;;;;;;;;;;5264424;28;20032;-82
2022/11/13 04:54:54;;;;;;;9.50;8.50;;;;;;;;;;5264182;28;20319;-82
2022/11/13 04:57:25;;;;;;;11.52;9.20;;;;;;;;;;5264342;28;20338;-82
2022/11/13 04:59:57;;;;;;;9.50;8.53;;;;;;;;;;5268104;28;20048;-82
2022/11/13 05:02:28;;;;;;;14.03;8.80;;;;;;;;;;5267031;28;20248;-82
2022/11/13 05:04:59;;;;;;;12.13;9.00;;;;;;;;;;5266509;28;20263;-82
2022/11/13 05:07:30;;;;;;;10.55;8.85;;;;;;;;;;5266916;28;20025;-82
2022/11/13 05:10:02;;;;;;;11.15;9.20;;;;;;;;;;5284560;28;20393;-82
2022/11/13 05:12:33;;;;;;;11.55;9.63;;;;;;;;;;5285348;28;20017;-82
2022/11/13 05:15:04;;;;;;;12.00;9.53;;;;;;;;;;5266043;28;20017;-82
2022/11/13 05:17:36;;;;;;;10.75;9.65;;;;;;;;;;5285256;28;20812;-82
2022/11/13 05:20:07;;;;;;;12.55;9.63;;;;;;;;;;5284999;28;20052;-82
2022/11/13 05:22:38;;;;;;;12.70;9.93;;;;;;;;;;5266917;28;20049;-82
2022/11/13 05:25:10;;;;;;;12.27;9.83;;;;;;;;;;5284422;28;20036;-82
2022/11/13 05:27:41;;;;;;;12.68;9.55;;;;;;;;;;5284698;28;20310;-82
2022/11/13 05:30:12;;;;;;;10.53;9.33;;;;;;;;;;5284604;28;20029;-82
2022/11/13 05:32:43;;;;;;;14.60;9.70;;;;;;;;;;5285238;28;20302;-82
2022/11/13 05:35:14;;;;;;;14.00;9.63;;;;;;;;;;5265913;28;20021;-82
2022/11/13 05:37:46;;;;;;;14.45;10.15;;;;;;;;;;5285323;28;20029;-82
2022/11/13 05:40:17;;;;;;;11.27;9.13;;;;;;;;;;5284720;28;20066;-82
2022/11/13 05:42:48;;;;;;;12.17;9.27;;;;;;;;;;5266995;28;20254;-82
2022/11/13 05:45:19;;;;;;;9.53;8.53;;;;;;;;;;5284521;28;20259;-82
2022/11/13 05:47:50;;;;;;;10.73;8.83;;;;;;;;;;5284509;28;20306;-82
2022/11/13 05:50:22;;;;;;;11.90;9.68;;;;;;;;;;5266556;28;20276;-82
2022/11/13 05:52:53;;;;;;;11.98;9.00;;;;;;;;;;5266865;28;20028;-82
2022/11/13 05:55:24;;;;;;;10.05;8.82;;;;;;;;;;5285063;28;20029;-82
2022/11/13 05:57:57;;;;;;;11.45;9.05;;;;;;;;;;5284734;28;20029;-82
2022/11/13 06:00:28;;;;;;;10.82;8.73;;;;;;;;;;5284782;28;20027;-82
2022/11/13 06:02:59;;;;;;;13.70;10.07;;;;;;;;;;5284893;28;20392;-82
2022/11/13 06:05:33;;;;;;;13.90;10.57;;;;;;;;;;5284457;28;20283;-82
2022/11/13 06:08:04;;;;;;;11.98;9.45;;;;;;;;;;5284744;28;20322;-82
2022/11/13 06:10:35;;;;;;;10.30;9.20;;;;;;;;;;5284341;28;20025;-82
2022/11/13 06:13:07;;;;;;;11.40;9.30;;;;;;;;;;5284688;28;20402;-83
2022/11/13 06:15:38;;;;;;;11.95;10.05;;;;;;;;;;5266375;28;20028;-82
2022/11/13 06:18:09;;;;;;;13.33;10.10;;;;;;;;;;5266471;28;20025;-82
2022/11/13 06:20:40;;;;;;;13.10;10.73;;;;;;;;;;5264756;28;20283;-82
2022/11/13 06:23:11;;;;;;;12.30;10.70;;;;;;;;;;5284392;28;20438;-82
2022/11/13 06:25:42;;;;;;;13.80;10.87;;;;;;;;;;5284143;28;20029;-82
2022/11/13 06:28:14;;;;;;;13.30;11.43;;;;;;;;;;5284103;28;20274;-82
2022/11/13 06:30:45;;;;;;;15.47;11.87;;;;;;;;;;5265541;28;20260;-82
2022/11/13 06:33:16;;;;;;;15.27;11.20;;;;;;;;;;5265989;28;20283;-82
2022/11/13 06:35:47;;;;;;;15.43;11.30;;;;;;;;;;5284224;28;20374;-82
2022/11/13 06:38:18;;;;;;;15.23;11.70;;;;;;;;;;5283525;28;20264;-82
2022/11/13 06:40:50;;;;;;;15.10;11.88;;;;;;;;;;5284093;28;20260;-82
2022/11/13 06:43:21;;;;;;;15.68;11.02;;;;;;;;;;5265372;28;20025;-82
2022/11/13 06:45:52;;;;;;;15.57;11.80;;;;;;;;;;5265491;28;20025;-81
2022/11/13 06:48:23;;;;;;;16.02;13.15;;;;;;;;;;5282176;28;20617;-82
2022/11/13 06:50:59;;;;;;;17.13;13.32;;;;;;;;;;5283743;28;20044;-82
2022/11/13 06:53:30;;;;;;;18.75;13.43;;;;;;;;;;5264934;28;20021;-82
2022/11/13 06:56:03;;;;;;;19.92;14.85;;;;;;;;;;5283752;28;20453;-82
2022/11/13 06:58:35;;;;;;;21.35;16.60;;;;;;;;;;5283439;28;20056;-82
2022/11/13 07:01:10;;;;;;;24.73;17.95;;;;;;;;;;5265486;28;20072;-82
2022/11/13 07:03:41;;;;;;;26.48;18.70;;;;;;;;;;5283362;28;20036;-82
2022/11/13 07:06:23;;;;;;;25.63;19.25;;;;;;;;;;5265268;28;20021;-82
2022/11/13 07:08:54;;;;;;;27.45;18.60;;;;;;;;;;5283196;28;20029;-82
2022/11/13 07:11:25;;;;;;;25.70;17.80;;;;;;;;;;5281150;28;20114;-82
2022/11/13 07:13:56;;;;;;;22.00;16.38;;;;;;;;;;5262415;28;20416;-82
2022/11/13 07:16:28;;;;;;;22.05;15.75;;;;;;;;;;5261878;28;20018;-81
2022/11/13 07:18:59;;;;;;;19.48;15.10;;;;;;;;;;5262204;28;20040;-81
2022/11/13 07:21:30;;;;;;;19.35;15.23;;;;;;;;;;5264141;28;20045;-82
2022/11/13 07:24:01;;;;;;;18.42;14.45;;;;;;;;;;5261530;28;20032;-82
2022/11/13 07:26:33;;;;;;;18.02;14.32;;;;;;;;;;5262278;28;20029;-82
2022/11/13 07:29:04;;;;;;;17.42;13.82;;;;;;;;;;5262762;28;20033;-82
2022/11/13 07:31:35;;;;;;;15.90;13.37;;;;;;;;;;5262821;28;20033;-82
2022/11/13 07:34:06;;;;;;;20.43;14.67;;;;;;;;;;5264522;28;20276;-82
2022/11/13 07:36:38;;;;;;;23.00;17.30;;;;;;;;;;5266126;28;20744;-82
2022/11/13 07:39:09;;;;;;;21.20;18.13;;;;;;;;;;5263807;28;20026;-82
2022/11/13 07:41:40;;;;;;;15.43;13.60;;;;;;;;;;5266155;28;20403;-82
2022/11/13 07:44:11;;;;;;;15.63;13.90;;;;;;;;;;5265937;28;20076;-82
2022/11/13 07:46:43;;;;;;;11.93;10.45;;;;;;;;;;5264983;28;20052;-82
2022/11/13 07:49:14;;;;;;;10.23;9.13;;;;;;;;;;5265607;28;20501;-83
2022/11/13 07:51:45;;;;;;;11.00;9.20;;;;;;;;;;5264920;28;20033;-83
2022/11/13 07:54:17;;;;;;;7.43;6.57;;;;;;;;;;5247292;28;20278;-83
2022/11/13 07:56:48;;;;;;;9.93;6.93;;;;;;;;;;5247240;28;20248;-83
2022/11/13 07:59:20;;;;;;;6.95;6.25;;;;;;;;;;5263770;28;20491;-83
2022/11/13 08:01:53;;;;;;;8.98;6.68;;;;;;;;;;5263693;28;20030;-83
2022/11/13 08:04:25;;;;;;;7.55;6.85;;;;;;;;;;5264948;28;20030;-83
2022/11/13 08:06:56;;;;;;;12.05;7.95;;;;;;;;;;5264778;28;20029;-83
2022/11/13 08:09:27;;;;;;;9.23;6.75;;;;;;;;;;5265566;28;20017;-83
2022/11/13 08:11:58;;;;;;;9.27;7.20;;;;;;;;;;5264777;28;20028;-83
2022/11/13 08:14:30;;;;;;;10.63;8.40;;;;;;;;;;5264930;28;20354;-82
2022/11/13 08:17:01;;;;;;;10.30;8.75;;;;;;;;;;5264791;28;20326;-83
2022/11/13 08:19:32;;;;;;;11.00;8.40;;;;;;;;;;5264815;28;20164;-82
2022/11/13 08:22:03;;;;;;;10.23;8.07;;;;;;;;;;5263236;28;20261;-82
2022/11/13 08:24:34;;;;;;;8.43;7.53;;;;;;;;;;5262929;28;20280;-82
2022/11/13 08:27:06;;;;;;;9.60;7.60;;;;;;;;;;5264698;28;20609;-82
2022/11/13 08:29:37;;;;;;;10.32;9.20;;;;;;;;;;5264757;28;20316;-82
2022/11/13 08:32:08;;;;;;;13.88;10.65;;;;;;;;;;5263458;28;20013;-82
2022/11/13 08:34:39;;;;;;;14.60;11.52;;;;;;;;;;5264478;28;20022;-83
2022/11/13 08:37:11;;;;;;;11.50;10.23;;;;;;;;;;5263021;28;20022;-83
2022/11/13 08:39:42;;;;;;;10.90;9.55;;;;;;;;;;5265021;28;20272;-82
2022/11/13 08:42:13;;;;;;;13.43;9.70;;;;;;;;;;5264962;28;20026;-82
2022/11/13 08:44:44;;;;;;;13.73;9.70;;;;;;;;;;5263703;28;20260;-82
2022/11/13 08:47:15;;;;;;;10.77;9.25;;;;;;;;;;5264916;28;20281;-82
2022/11/13 08:49:46;;;;;;;11.77;9.23;;;;;;;;;;5266525;28;20025;-82
2022/11/13 08:52:18;;;;;;;12.73;9.30;;;;;;;;;;5266077;28;20076;-82
2022/11/13 08:54:49;;;;;;;9.95;8.95;;;;;;;;;;5265975;28;20252;-82
2022/11/13 08:57:20;;;;;;;9.73;8.43;;;;;;;;;;5269820;28;21001;-83
2022/11/13 08:59:51;;;;;;;10.70;9.15;;;;;;;;;;5270363;28;20029;-83
2022/11/13 09:02:24;;;;;;;11.33;9.10;;;;;;;;;;5270580;28;20029;-82
2022/11/13 09:04:55;;;;;;;10.55;9.50;;;;;;;;;;5290915;28;20259;-83
2022/11/13 09:07:26;;;;;;;10.90;9.23;;;;;;;;;;5290831;28;20031;-82
2022/11/13 09:09:57;;;;;;;10.53;9.10;;;;;;;;;;5289745;28;20159;-82
2022/11/13 09:12:31;;;;;;;11.48;9.57;;;;;;;;;;5259556;28;20414;-82
2022/11/13 09:15:04;;;;;;;11.88;9.55;;;;;;;;;;5264746;28;20049;-83
2022/11/13 09:17:35;;;;;;;11.82;9.57;;;;;;;;;;5269779;28;20017;-83
2022/11/13 09:20:09;;;;;;;11.23;9.63;;;;;;;;;;5267721;28;20036;-83
2022/11/13 09:22:40;;;;;;;10.13;9.07;;;;;;;;;;5265014;28;20352;-82
2022/11/13 09:25:12;;;;;;;10.17;8.43;;;;;;;;;;5265934;28;20456;-83
2022/11/13 09:27:50;;;;;;;9.00;8.10;;;;;;;;;;5264645;28;20268;-83
2022/11/13 09:30:21;;;;;;;9.18;8.27;;;;;;;;;;5265900;28;20433;-83
2022/11/13 09:32:53;;;;;;;11.70;8.65;;;;;;;;;;5265703;28;20026;-83
2022/11/13 09:35:35;;;;;;;9.45;7.53;;;;;;;;;;5268515;28;20377;-83
2022/11/13 09:38:07;;;;;;;7.13;6.43;;;;;;;;;;5268907;28;20342;-82
2022/11/13 09:40:45;;;;;;;9.82;6.97;;;;;;;;;;5266345;28;20033;-83
2022/11/13 09:43:29;;;;;;;8.18;6.65;;;;;;;;;;5266424;28;20021;-82
2022/11/13 09:46:23;;;;;;;9.43;7.07;;;;;;;;;;5268773;28;20045;-82
2022/11/13 09:48:57;;;;;;;8.20;7.40;;;;;;;;;;5255550;28;20145;-82
2022/11/13 09:51:35;;;;;;;8.88;6.82;;;;;;;;;;5246780;28;20033;-82
2022/11/13 09:54:12;;;;;;;7.55;6.57;;;;;;;;;;5250819;28;20380;-82
2022/11/13 09:56:54;;;;;;;7.35;6.65;;;;;;;;;;5266400;28;20030;-81
2022/11/13 09:59:30;;;;;;;8.80;6.55;;;;;;;;;;5250847;28;20018;-81
2022/11/13 10:02:01;;;;;;;;;;;;;;;;;;5256898;28;20030;-82
2022/11/13 10:04:49;;;;;;;9.53;6.37;;;;;;;;;;5251880;28;19940;-82
2022/11/13 10:07:44;;;;;;;6.47;5.32;;;;;;;;;;5268014;28;20021;-83
2022/11/13 10:10:34;;;;;;;7.80;5.03;;;;;;;;;;5243290;28;20033;-82
2022/11/13 10:13:09;;;;;;;6.90;5.07;;;;;;;;;;5264563;28;20102;-83
2022/11/13 10:15:44;;;;;;;4.80;4.30;;;;;;;;;;5245469;28;20025;-82
2022/11/13 10:18:18;;;;;;;5.70;5.13;;;;;;;;;;5245808;28;20101;-83
2022/11/13 10:20:53;;;;;;;4.53;4.13;;;;;;;;;;5260588;28;20065;-82
2022/11/13 10:23:27;;;;;;;5.65;4.47;;;;;;;;;;5258309;28;20018;-84
2022/11/13 10:26:04;;;;;;;5.95;4.30;;;;;;;;;;5242738;28;20041;-83
2022/11/13 10:28:38;;;;;;;5.10;4.03;;;;;;;;;;5257333;28;20112;-83
2022/11/13 10:31:12;;;;;;;4.50;4.07;;;;;;;;;;5257885;28;20034;-84
2022/11/13 10:33:43;;;;;;;5.72;4.13;;;;;;;;;;5241973;28;20014;-84
2022/11/13 10:36:30;;;;;;;5.50;4.13;;;;;;;;;;5240828;28;20022;-84
2022/11/13 10:39:04;;;;;;;8.68;4.10;;;;;;;;;;5257314;28;20034;-84
2022/11/13 10:41:46;;;;;;;3.65;3.25;;;;;;;;;;5241855;28;20141;-84
2022/11/13 10:44:21;;;;;;;5.32;3.80;;;;;;;;;;5241411;28;20038;-84
2022/11/13 10:47:12;;;;;;;4.53;3.88;;;;;;;;;;5245440;28;20072;-84
2022/11/13 10:49:43;;;;;;;3.95;3.65;;;;;;;;;;5261096;28;20470;-84
2022/11/13 10:52:17;;;;;;;4.40;4.00;;;;;;;;;;5262128;28;20040;-84
2022/11/13 10:54:49;;;;;;;4.70;3.65;;;;;;;;;;5261272;28;20018;-84
2022/11/13 10:57:33;;;;;;;6.80;3.63;;;;;;;;;;5262226;28;20537;-84
2022/11/13 11:00:23;;;;;;;3.85;3.45;;;;;;;;;;5266314;28;20017;-84
2022/11/13 11:02:54;;;;;;;3.83;3.00;;;;;;;;;;5282985;28;20031;-84
2022/11/13 11:05:26;;;;;;;4.73;3.63;;;;;;;;;;5283151;28;20029;-84
2022/11/13 11:07:59;;;;;;;4.47;3.53;;;;;;;;;;5282528;28;20017;-83
2022/11/13 11:10:32;;;;;;;3.83;3.42;;;;;;;;;;5283418;28;20025;-84
2022/11/13 11:13:08;;;;;;;5.18;3.15;;;;;;;;;;5267470;28;20462;-84
2022/11/13 11:15:39;;;;;;;3.92;3.55;;;;;;;;;;5261814;28;20034;-84
2022/11/13 11:18:31;;;;;;;4.67;3.80;;;;;;;;;;5260889;28;20021;-84
2022/11/13 11:21:05;;;;;;;5.18;3.67;;;;;;;;;;5239206;28;20047;-84
2022/11/13 11:23:36;;;;;;;3.90;3.53;;;;;;;;;;5261853;28;20057;-84
2022/11/13 11:26:22;;;;;;;3.73;3.33;;;;;;;;;;5262130;28;20115;-84
2022/11/13 11:29:06;;;;;;;5.22;3.00;;;;;;;;;;5260302;28;20021;-84
2022/11/13 11:31:44;;;;;;;4.53;3.90;;;;;;;;;;5261663;28;20026;-84
2022/11/13 11:34:20;;;;;;;3.83;3.53;;;;;;;;;;5259867;28;20453;-84
2022/11/13 11:37:10;;;;;;;4.57;3.60;;;;;;;;;;5260175;28;20045;-84
2022/11/13 11:39:56;;;;;;;7.80;3.55;;;;;;;;;;5260177;28;20065;-84
2022/11/13 11:42:37;;;;;;;4.38;3.47;;;;;;;;;;5259848;28;20437;-84
2022/11/13 11:45:13;;;;;;;4.15;3.60;;;;;;;;;;5261708;28;20091;-84
2022/11/13 11:47:44;;;;;;;5.07;3.60;;;;;;;;;;5261188;28;20037;-84
2022/11/13 11:50:17;;;;;;;4.32;3.88;;;;;;;;;;5261737;28;20220;-84
2022/11/13 11:52:55;;;;;;;5.28;4.25;;;;;;;;;;5261324;28;20045;-84
2022/11/13 11:55:26;;;;;;;4.50;4.10;;;;;;;;;;5261444;28;20029;-84
2022/11/13 11:58:02;;;;;;;5.90;3.93;;;;;;;;;;5260585;28;20778;-84
2022/11/13 12:00:35;;;;;;;4.18;3.80;;;;;;;;;;5264211;28;20041;-84
2022/11/13 12:03:06;;;;;;;6.65;3.97;;;;;;;;;;5264512;28;20429;-81
2022/11/13 12:05:37;;;;;;;5.27;4.63;;;;;;;;;;5282748;28;20033;-83
2022/11/13 12:08:11;;;;;;;4.30;3.90;;;;;;;;;;5282453;28;20025;-84
2022/11/13 12:10:54;;;;;;;5.23;3.53;;;;;;;;;;5281077;28;20064;-84
2022/11/13 12:13:30;;;;;;;5.90;3.65;;;;;;;;;;5282340;28;20029;-84
2022/11/13 12:16:11;;;;;;;4.28;3.65;;;;;;;;;;5281926;28;20075;-84
2022/11/13 12:18:52;;;;;;;3.75;3.45;;;;;;;;;;5283218;28;20492;-84
2022/11/13 12:21:27;;;;;;;4.15;3.75;;;;;;;;;;5283957;28;20025;-84
2022/11/13 12:24:04;;;;;;;3.25;3.00;;;;;;;;;;5285551;28;20104;-84
2022/11/13 12:26:51;;;;;;;4.65;3.75;;;;;;;;;;5285525;28;20091;-84
2022/11/13 12:29:31;;;;;;;4.03;3.50;;;;;;;;;;5285929;28;20013;-82
2022/11/13 12:32:21;;;;;;;3.95;3.10;;;;;;;;;;5285328;28;20024;-81
2022/11/13 12:34:55;;;;;;;4.00;2.97;;;;;;;;;;5285732;28;20021;-84
2022/11/13 12:37:32;;;;;;;5.03;3.20;;;;;;;;;;5284458;28;20033;-82
2022/11/13 12:40:07;;;;;;;4.75;3.17;;;;;;;;;;5273613;28;20383;-82
2022/11/13 12:42:46;;;;;;;4.43;3.20;;;;;;;;;;5264325;28;20044;-82
2022/11/13 12:45:23;;;;;;;3.08;2.88;;;;;;;;;;5264019;28;20033;-82
2022/11/13 12:47:55;;;;;;;3.35;3.05;;;;;;;;;;5263877;28;20038;-82
2022/11/13 12:50:27;;;;;;;4.20;3.30;;;;;;;;;;5264531;28;20516;-82
2022/11/13 12:53:04;;;;;;;4.18;3.13;;;;;;;;;;5262635;28;20026;-84
2022/11/13 12:55:36;;;;;;;3.47;2.97;;;;;;;;;;5262591;28;20022;-83
2022/11/13 12:58:09;;;;;;;3.35;3.05;;;;;;;;;;5263367;28;20032;-84
2022/11/13 13:00:51;;;;;;;3.42;3.13;;;;;;;;;;5267117;28;20033;-83
2022/11/13 13:03:25;;;;;;;5.78;3.38;;;;;;;;;;5266791;28;20017;-83
2022/11/13 13:06:07;;;;;;;5.03;3.00;;;;;;;;;;5284719;28;20040;-83
2022/11/13 13:08:48;;;;;;;5.68;3.10;;;;;;;;;;5284905;28;20029;-83
2022/11/13 13:11:25;;;;;;;4.72;2.92;;;;;;;;;;5284784;28;20029;-83
2022/11/13 13:14:15;;;;;;;3.45;2.95;;;;;;;;;;5285135;28;20033;-84
2022/11/13 13:16:46;;;;;;;3.00;2.45;;;;;;;;;;5284981;28;20033;-83
2022/11/13 13:19:25;;;;;;;3.63;2.90;;;;;;;;;;5285286;28;20075;-84
2022/11/13 13:21:56;;;;;;;4.40;2.92;;;;;;;;;;5266396;28;20505;-83
2022/11/13 13:24:34;;;;;;;3.00;2.70;;;;;;;;;;5285225;28;20114;-83
2022/11/13 13:27:20;;;;;;;2.85;2.60;;;;;;;;;;5285059;28;20322;-83
2022/11/13 13:29:51;;;;;;;3.63;3.22;;;;;;;;;;5269993;28;20128;-83
2022/11/13 13:32:31;;;;;;;3.80;2.90;;;;;;;;;;5262380;28;20077;-83
2022/11/13 13:35:09;;;;;;;4.95;2.88;;;;;;;;;;5261694;28;20026;-84
2022/11/13 13:37:58;;;;;;;3.80;3.00;;;;;;;;;;5263246;28;20021;-83
2022/11/13 13:40:36;;;;;;;2.80;2.20;;;;;;;;;;5263293;28;20120;-84
2022/11/13 13:43:27;;;;;;;4.07;2.40;;;;;;;;;;5263384;28;20041;-83
2022/11/13 13:46:01;;;;;;;2.75;2.45;;;;;;;;;;5261689;28;20034;-84
2022/11/13 13:48:36;;;;;;;4.32;2.90;;;;;;;;;;5261965;28;20453;-83
2022/11/13 13:51:22;;;;;;;2.90;2.47;;;;;;;;;;5261506;28;20029;-83
2022/11/13 13:53:58;;;;;;;4.80;2.50;;;;;;;;;;5263055;28;20045;-83
2022/11/13 13:56:30;;;;;;;2.63;2.15;;;;;;;;;;5263045;28;20071;-83
2022/11/13 13:59:01;;;;;;;2.53;2.08;;;;;;;;;;5263035;28;20033;-83
2022/11/13 14:01:33;;;;;;;2.97;2.10;;;;;;;;;;5265887;28;20029;-83
2022/11/13 14:04:10;;;;;;;2.83;2.20;;;;;;;;;;5283708;28;20458;-83
2022/11/13 14:06:49;;;;;;;2.45;2.20;;;;;;;;;;5265859;28;20140;-83
2022/11/13 14:09:22;;;;;;;3.75;2.17;;;;;;;;;;5284392;28;20025;-83
2022/11/13 14:12:04;;;;;;;3.85;2.30;;;;;;;;;;5284583;28;20409;-83
2022/11/13 14:14:38;;;;;;;2.22;2.03;;;;;;;;;;5265080;28;20029;-83
2022/11/13 14:17:10;;;;;;;3.00;2.17;;;;;;;;;;5283709;28;20055;-83
2022/11/13 14:19:47;;;;;;;2.67;2.13;;;;;;;;;;5265506;28;20025;-83
2022/11/13 14:22:19;;;;;;;2.83;2.22;;;;;;;;;;5265012;28;20530;-83
2022/11/13 14:24:54;;;;;;;3.70;2.00;;;;;;;;;;5284090;28;20040;-83
2022/11/13 14:27:26;;;;;;;2.60;2.03;;;;;;;;;;5283318;28;20021;-83
2022/11/13 14:29:59;;;;;;;2.90;2.20;;;;;;;;;;5283520;28;20021;-83
2022/11/13 14:32:32;;;;;;;2.45;2.22;;;;;;;;;;5265483;28;20063;-83
2022/11/13 14:35:03;;;;;;;3.97;2.35;;;;;;;;;;5283571;28;20373;-83
2022/11/13 14:37:36;;;;;;;2.83;2.55;;;;;;;;;;5283350;28;20100;-82
2022/11/13 14:40:21;;;;;;;4.40;2.65;;;;;;;;;;5265362;28;20025;-83
2022/11/13 14:42:57;;;;;;;5.72;2.50;;;;;;;;;;5264234;28;20029;-83
2022/11/13 14:45:30;;;;;;;3.15;2.70;;;;;;;;;;5264962;28;20029;-82
2022/11/13 14:48:15;;;;;;;4.53;3.38;;;;;;;;;;5283051;28;20090;-83
2022/11/13 14:50:52;;;;;;;4.93;3.47;;;;;;;;;;5265137;28;20037;-83
2022/11/13 14:53:37;;;;;;;5.53;3.83;;;;;;;;;;5283039;28;20037;-82
2022/11/13 14:56:10;;;;;;;4.45;3.85;;;;;;;;;;5283230;28;20470;-82
2022/11/13 14:58:45;;;;;;;4.72;4.22;;;;;;;;;;5283483;28;20493;-82
2022/11/13 15:01:17;;;;;;;6.15;4.75;;;;;;;;;;5282959;28;20063;-83
2022/11/13 15:03:48;;;;;;;5.23;4.40;;;;;;;;;;5283623;28;20044;-83
2022/11/13 15:06:24;;;;;;;6.43;4.95;;;;;;;;;;5283172;28;20318;-83
2022/11/13 15:08:56;;;;;;;4.90;4.35;;;;;;;;;;5283410;28;20032;-82
2022/11/13 15:11:29;;;;;;;6.57;4.45;;;;;;;;;;5283362;28;20405;-82